Jamie Marie — WDE7178 — position and weather

sailwx.info

Track history (hours):
 
Tides and Currents Weather Stations Pressure Air Temp Water Temp Dewpoint Dewpoint Depression Visibility Wind Speed Wind Dir Waves Ship Positions

Jamie Marie

Owner: Jamie Marie, Inc., Aberdeen, WA. More information available from US FCC via Universal Licensing System and Coast Guard Vessel Documentation Center.

Last reported at 2015-May-22 14:27 UTC. Time now 2015-May-22 20:40 UTC.
Position N 46°54' W 124°06'.

Length 30 m.

Type: Fishing. MMSI: 366425240.

Date/timePositionNaut miles runAvg speedWind from/ knotsBaromVisibWave heightAir tempDewpointWater temp
2015-May-22 14:27N 46°54' W 124°06'0 0.0
2015-May-22 11:33N 46°54' W 124°06'0 0.0
2015-May-22 10:23N 46°54' W 124°06'0 0.0
2015-May-22 08:31N 46°54' W 124°06'0 0.0
2015-May-22 07:29N 46°54' W 124°06'0 0.0
2015-May-22 06:32N 46°54' W 124°06'0 0.0
2015-May-22 05:24N 46°54' W 124°06'0 0.0
2015-May-22 04:30N 46°54' W 124°06'0 0.0
2015-May-22 03:32N 46°54' W 124°06'0 0.0
2015-May-22 03:03N 46°54' W 124°06'0 0.0
2015-May-22 02:30N 46°54' W 124°06'0 0.0
2015-May-22 01:31N 46°54' W 124°06'0 0.0
2015-May-22 00:33N 46°54' W 124°06'0 0.0
2015-May-21 23:33N 46°54' W 124°06'0 0.0
2015-May-21 22:33N 46°54' W 124°06'0 0.0
2015-May-21 21:31N 46°54' W 124°06'0 0.0
2015-May-21 20:33N 46°54' W 124°06'4 0.5
2015-May-21 11:33N 46°55' W 124°12'8 8.4
2015-May-21 10:33N 47°02' W 124°19'10 8.3
2015-May-21 09:23N 47°11' W 124°26'8 8.6
2015-May-21 08:23N 47°18' W 124°32'11 9.2
2015-May-21 07:14N 47°28' W 124°40'6 9.1
2015-May-21 06:33N 47°33' W 124°44'8 8.5
2015-May-21 05:34N 47°40' W 124°51'010.0
2015-May-21 05:33N 47°40' W 124°51'8 8.3
2015-May-21 04:33N 47°47' W 124°57'8 8.2
2015-May-21 03:33N 47°54' W 125°03'8 1.7
2015-May-20 23:05N 48°02' W 125°06'5 0.7
2015-May-20 16:03N 47°57' W 125°07'8 1.8
2015-May-20 11:30N 47°50' W 125°01'1 0.6
2015-May-20 10:25N 47°51' W 125°02'1 0.7
2015-May-20 09:23N 47°51' W 125°02'1 0.7
2015-May-20 08:31N 47°51' W 125°03'1 0.6
2015-May-20 07:10N 47°51' W 125°04'1 0.7
2015-May-20 06:22N 47°52' W 125°05'55 2.0
2015-May-19 02:33N 46°60' W 124°38'2 1.7
2015-May-19 01:33N 46°58' W 124°38'2 1.8
2015-May-19 00:33N 46°56' W 124°39'4 3.7
2015-May-18 23:33N 46°53' W 124°37'6 6.2
2015-May-18 22:33N 46°50' W 124°44'2 1.9
2015-May-18 21:33N 46°48' W 124°44'5 4.9
2015-May-18 20:33N 46°43' W 124°45'3 2.7
2015-May-18 19:33N 46°46' W 124°45'4 3.8
2015-May-18 18:33N 46°50' W 124°44'2 1.6
2015-May-18 17:33N 46°51' W 124°45'2 1.7
2015-May-18 16:33N 46°53' W 124°45'2 1.8
2015-May-18 15:33N 46°55' W 124°46'2 2.0
2015-May-18 14:33N 46°53' W 124°48'2 1.5
2015-May-18 13:25N 46°52' W 124°48'3 2.6
2015-May-18 12:13N 46°49' W 124°45'1 0.8
2015-May-18 11:33N 46°50' W 124°46'1 0.7
2015-May-18 10:33N 46°50' W 124°46'1 0.7
2015-May-18 08:33N 46°51' W 124°47'1 0.6
2015-May-18 07:33N 46°52' W 124°48'1 0.6
2015-May-18 06:33N 46°52' W 124°48'1 0.7
2015-May-18 05:33N 46°53' W 124°48'0 0.4
2015-May-18 04:33N 46°53' W 124°48'2 1.4
2015-May-18 03:19N 46°52' W 124°49'1 1.5
2015-May-18 02:33N 46°51' W 124°48'2 1.6
2015-May-18 01:33N 46°52' W 124°48'2 1.9
2015-May-18 00:34N 46°54' W 124°47'1 1.4
2015-May-17 23:31N 46°53' W 124°48'2 1.8
2015-May-17 22:33N 46°51' W 124°48'1 0.7
2015-May-17 21:33N 46°51' W 124°47'2 1.8
2015-May-17 20:33N 46°52' W 124°48'2 2.5
2015-May-17 19:33N 46°54' W 124°45'8 8.3
2015-May-17 18:34N 46°54' W 124°33'8 8.4
2015-May-17 17:33N 46°55' W 124°20'8 0.3
2015-May-16 08:05N 46°55' W 124°08'4 6.8
2015-May-16 07:32N 46°54' W 124°13'8 8.1
2015-May-16 06:33N 46°52' W 124°24'8 8.2
2015-May-16 05:33N 46°49' W 124°36'7 7.2
2015-May-16 04:33N 46°46' W 124°46'1 1.4
2015-May-16 03:33N 46°45' W 124°47'2 1.8
2015-May-16 02:33N 46°44' W 124°45'2 1.5
2015-May-16 01:33N 46°45' W 124°46'0 0.3
2015-May-16 00:33N 46°45' W 124°46'2 1.7
2015-May-15 23:33N 46°44' W 124°45'2 1.8
2015-May-15 22:33N 46°42' W 124°44'1 1.2
2015-May-15 21:33N 46°43' W 124°45'2 1.8
2015-May-15 20:33N 46°45' W 124°45'1 1.3
2015-May-15 19:33N 46°46' W 124°44'1 1.0
2015-May-15 18:33N 46°46' W 124°46'2 1.5
2015-May-15 17:33N 46°45' W 124°44'2 1.6
2015-May-15 16:33N 46°46' W 124°44'2 1.9
2015-May-15 15:30N 46°48' W 124°42'2 1.9
2015-May-15 14:30N 46°47' W 124°44'2 1.7
2015-May-15 13:33N 46°45' W 124°44'3 2.4
2015-May-15 12:26N 46°45' W 124°48'2 2.1
2015-May-15 11:34N 46°44' W 124°46'2 2.2
2015-May-15 10:33N 46°43' W 124°43'0 0.4
2015-May-15 09:33N 46°43' W 124°42'1 1.3
2015-May-15 08:33N 46°44' W 124°43'1 1.3
2015-May-15 07:34N 46°45' W 124°44'1 1.1
2015-May-15 06:18N 46°46' W 124°45'1 1.1
2015-May-15 05:33N 46°47' W 124°45'1 1.1
2015-May-15 04:32N 46°48' W 124°46'1 1.1
2015-May-15 03:34N 46°49' W 124°46'2 2.0
2015-May-15 02:33N 46°51' W 124°47'1 0.6
2015-May-15 01:33N 46°51' W 124°47'2 1.8
2015-May-15 00:33N 46°53' W 124°48'4 4.3
2015-May-14 23:33N 46°52' W 124°42'2 2.4
2015-May-14 22:33N 46°54' W 124°39'2 1.8
2015-May-14 21:33N 46°55' W 124°39'2 2.5
2015-May-14 20:33N 46°57' W 124°41'6 1.9
2015-May-14 17:33N 47°00' W 124°49'1 0.8
2015-May-14 16:12N 47°01' W 124°50'6 1.2
2015-May-14 11:33N 47°06' W 124°47'2 1.5
2015-May-14 10:30N 47°08' W 124°48'1 1.3
2015-May-14 09:27N 47°09' W 124°49'1 1.1
2015-May-14 08:32N 47°10' W 124°49'1 0.8
2015-May-14 07:27N 47°10' W 124°50'11 3.5
2015-May-14 04:17N 46°60' W 124°51'3 1.4
2015-May-14 02:18N 47°02' W 124°52'3 1.6
2015-May-14 00:16N 46°59' W 124°51'3 1.8
2015-May-13 22:32N 47°02' W 124°51'2 1.8
2015-May-13 21:33N 47°02' W 124°48'2 1.9
2015-May-13 20:16N 47°00' W 124°47'0 0.3
2015-May-13 19:22N 47°00' W 124°47'2 1.7
2015-May-13 18:03N 47°02' W 124°48'1 1.6
2015-May-13 17:29N 47°03' W 124°48'1 1.2
2015-May-13 16:17N 47°02' W 124°48'2 1.9
2015-May-13 15:04N 46°60' W 124°46'1 1.3
2015-May-13 14:20N 47°00' W 124°45'1 1.7
2015-May-13 13:33N 46°60' W 124°44'3 2.7
2015-May-13 12:33N 46°57' W 124°42'2 2.2
2015-May-13 11:32N 46°55' W 124°41'2 0.7
2015-May-13 09:13N 46°56' W 124°42'1 0.9
2015-May-13 08:32N 46°57' W 124°42'1 1.0
2015-May-13 07:10N 46°58' W 124°43'1 1.0
2015-May-13 06:25N 46°59' W 124°43'1 1.1
2015-May-13 05:14N 47°00' W 124°43'2 3.1
2015-May-13 04:31N 46°58' W 124°44'1 0.9
2015-May-13 03:32N 46°59' W 124°43'2 1.7
2015-May-13 02:33N 47°00' W 124°44'0 0.2
2015-May-13 01:14N 47°01' W 124°44'1 1.7
2015-May-13 00:33N 46°60' W 124°43'2 1.8
2015-May-12 23:33N 46°58' W 124°41'5 4.7
2015-May-12 22:33N 46°53' W 124°42'5 5.0
2015-May-12 21:33N 46°54' W 124°34'7 6.8
2015-May-12 20:33N 46°56' W 124°25'7 7.0
2015-May-12 19:33N 46°55' W 124°15'  
Track history (hours):
 
Tides and Currents Weather Stations Pressure Air Temp Water Temp Dewpoint Dewpoint Depression Visibility Wind Speed Wind Dir Waves Ship Positions

Jamie Marie

Owner: Jamie Marie, Inc., Aberdeen, WA. More information available from US FCC via Universal Licensing System and Coast Guard Vessel Documentation Center.

Last reported at 2015-May-22 14:27 UTC. Time now 2015-May-22 20:40 UTC.
Position N 46°54' W 124°06'.

Length 30 m.

Type: Fishing. MMSI: 366425240.

Date/timePositionNaut miles runAvg speedWind from/ knotsBaromVisibWave heightAir tempDewpointWater temp
2015-May-22 14:27N 46°54' W 124°06'0 0.0
2015-May-22 11:33N 46°54' W 124°06'0 0.0
2015-May-22 10:23N 46°54' W 124°06'0 0.0
2015-May-22 08:31N 46°54' W 124°06'0 0.0
2015-May-22 07:29N 46°54' W 124°06'0 0.0
2015-May-22 06:32N 46°54' W 124°06'0 0.0
2015-May-22 05:24N 46°54' W 124°06'0 0.0
2015-May-22 04:30N 46°54' W 124°06'0 0.0
2015-May-22 03:32N 46°54' W 124°06'0 0.0
2015-May-22 03:03N 46°54' W 124°06'0 0.0
2015-May-22 02:30N 46°54' W 124°06'0 0.0
2015-May-22 01:31N 46°54' W 124°06'0 0.0
2015-May-22 00:33N 46°54' W 124°06'0 0.0
2015-May-21 23:33N 46°54' W 124°06'0 0.0
2015-May-21 22:33N 46°54' W 124°06'0 0.0
2015-May-21 21:31N 46°54' W 124°06'0 0.0
2015-May-21 20:33N 46°54' W 124°06'4 0.5
2015-May-21 11:33N 46°55' W 124°12'8 8.4
2015-May-21 10:33N 47°02' W 124°19'10 8.3
2015-May-21 09:23N 47°11' W 124°26'8 8.6
2015-May-21 08:23N 47°18' W 124°32'11 9.2
2015-May-21 07:14N 47°28' W 124°40'6 9.1
2015-May-21 06:33N 47°33' W 124°44'8 8.5
2015-May-21 05:34N 47°40' W 124°51'010.0
2015-May-21 05:33N 47°40' W 124°51'8 8.3
2015-May-21 04:33N 47°47' W 124°57'8 8.2
2015-May-21 03:33N 47°54' W 125°03'8 1.7
2015-May-20 23:05N 48°02' W 125°06'5 0.7
2015-May-20 16:03N 47°57' W 125°07'8 1.8
2015-May-20 11:30N 47°50' W 125°01'1 0.6
2015-May-20 10:25N 47°51' W 125°02'1 0.7
2015-May-20 09:23N 47°51' W 125°02'1 0.7
2015-May-20 08:31N 47°51' W 125°03'1 0.6
2015-May-20 07:10N 47°51' W 125°04'1 0.7
2015-May-20 06:22N 47°52' W 125°05'55 2.0
2015-May-19 02:33N 46°60' W 124°38'2 1.7
2015-May-19 01:33N 46°58' W 124°38'2 1.8
2015-May-19 00:33N 46°56' W 124°39'4 3.7
2015-May-18 23:33N 46°53' W 124°37'6 6.2
2015-May-18 22:33N 46°50' W 124°44'2 1.9
2015-May-18 21:33N 46°48' W 124°44'5 4.9
2015-May-18 20:33N 46°43' W 124°45'3 2.7
2015-May-18 19:33N 46°46' W 124°45'4 3.8
2015-May-18 18:33N 46°50' W 124°44'2 1.6
2015-May-18 17:33N 46°51' W 124°45'2 1.7
2015-May-18 16:33N 46°53' W 124°45'2 1.8
2015-May-18 15:33N 46°55' W 124°46'2 2.0
2015-May-18 14:33N 46°53' W 124°48'2 1.5
2015-May-18 13:25N 46°52' W 124°48'3 2.6
2015-May-18 12:13N 46°49' W 124°45'1 0.8
2015-May-18 11:33N 46°50' W 124°46'1 0.7
2015-May-18 10:33N 46°50' W 124°46'1 0.7
2015-May-18 08:33N 46°51' W 124°47'1 0.6
2015-May-18 07:33N 46°52' W 124°48'1 0.6
2015-May-18 06:33N 46°52' W 124°48'1 0.7
2015-May-18 05:33N 46°53' W 124°48'0 0.4
2015-May-18 04:33N 46°53' W 124°48'2 1.4
2015-May-18 03:19N 46°52' W 124°49'1 1.5
2015-May-18 02:33N 46°51' W 124°48'2 1.6
2015-May-18 01:33N 46°52' W 124°48'2 1.9
2015-May-18 00:34N 46°54' W 124°47'1 1.4
2015-May-17 23:31N 46°53' W 124°48'2 1.8
2015-May-17 22:33N 46°51' W 124°48'1 0.7
2015-May-17 21:33N 46°51' W 124°47'2 1.8
2015-May-17 20:33N 46°52' W 124°48'2 2.5
2015-May-17 19:33N 46°54' W 124°45'8 8.3
2015-May-17 18:34N 46°54' W 124°33'8 8.4
2015-May-17 17:33N 46°55' W 124°20'8 0.3
2015-May-16 08:05N 46°55' W 124°08'4 6.8
2015-May-16 07:32N 46°54' W 124°13'8 8.1
2015-May-16 06:33N 46°52' W 124°24'8 8.2
2015-May-16 05:33N 46°49' W 124°36'7 7.2
2015-May-16 04:33N 46°46' W 124°46'1 1.4
2015-May-16 03:33N 46°45' W 124°47'2 1.8
2015-May-16 02:33N 46°44' W 124°45'2 1.5
2015-May-16 01:33N 46°45' W 124°46'0 0.3
2015-May-16 00:33N 46°45' W 124°46'2 1.7
2015-May-15 23:33N 46°44' W 124°45'2 1.8
2015-May-15 22:33N 46°42' W 124°44'1 1.2
2015-May-15 21:33N 46°43' W 124°45'2 1.8
2015-May-15 20:33N 46°45' W 124°45'1 1.3
2015-May-15 19:33N 46°46' W 124°44'1 1.0
2015-May-15 18:33N 46°46' W 124°46'2 1.5
2015-May-15 17:33N 46°45' W 124°44'2 1.6
2015-May-15 16:33N 46°46' W 124°44'2 1.9
2015-May-15 15:30N 46°48' W 124°42'2 1.9
2015-May-15 14:30N 46°47' W 124°44'2 1.7
2015-May-15 13:33N 46°45' W 124°44'3 2.4
2015-May-15 12:26N 46°45' W 124°48'2 2.1
2015-May-15 11:34N 46°44' W 124°46'2 2.2
2015-May-15 10:33N 46°43' W 124°43'0 0.4
2015-May-15 09:33N 46°43' W 124°42'1 1.3
2015-May-15 08:33N 46°44' W 124°43'1 1.3
2015-May-15 07:34N 46°45' W 124°44'1 1.1
2015-May-15 06:18N 46°46' W 124°45'1 1.1
2015-May-15 05:33N 46°47' W 124°45'1 1.1
2015-May-15 04:32N 46°48' W 124°46'1 1.1
2015-May-15 03:34N 46°49' W 124°46'2 2.0
2015-May-15 02:33N 46°51' W 124°47'1 0.6
2015-May-15 01:33N 46°51' W 124°47'2 1.8
2015-May-15 00:33N 46°53' W 124°48'4 4.3
2015-May-14 23:33N 46°52' W 124°42'2 2.4
2015-May-14 22:33N 46°54' W 124°39'2 1.8
2015-May-14 21:33N 46°55' W 124°39'2 2.5
2015-May-14 20:33N 46°57' W 124°41'6 1.9
2015-May-14 17:33N 47°00' W 124°49'1 0.8
2015-May-14 16:12N 47°01' W 124°50'6 1.2
2015-May-14 11:33N 47°06' W 124°47'2 1.5
2015-May-14 10:30N 47°08' W 124°48'1 1.3
2015-May-14 09:27N 47°09' W 124°49'1 1.1
2015-May-14 08:32N 47°10' W 124°49'1 0.8
2015-May-14 07:27N 47°10' W 124°50'11 3.5
2015-May-14 04:17N 46°60' W 124°51'3 1.4
2015-May-14 02:18N 47°02' W 124°52'3 1.6
2015-May-14 00:16N 46°59' W 124°51'3 1.8
2015-May-13 22:32N 47°02' W 124°51'2 1.8
2015-May-13 21:33N 47°02' W 124°48'2 1.9
2015-May-13 20:16N 47°00' W 124°47'0 0.3
2015-May-13 19:22N 47°00' W 124°47'2 1.7
2015-May-13 18:03N 47°02' W 124°48'1 1.6
2015-May-13 17:29N 47°03' W 124°48'1 1.2
2015-May-13 16:17N 47°02' W 124°48'2 1.9
2015-May-13 15:04N 46°60' W 124°46'1 1.3
2015-May-13 14:20N 47°00' W 124°45'1 1.7
2015-May-13 13:33N 46°60' W 124°44'3 2.7
2015-May-13 12:33N 46°57' W 124°42'2 2.2
2015-May-13 11:32N 46°55' W 124°41'2 0.7
2015-May-13 09:13N 46°56' W 124°42'1 0.9
2015-May-13 08:32N 46°57' W 124°42'1 1.0
2015-May-13 07:10N 46°58' W 124°43'1 1.0
2015-May-13 06:25N 46°59' W 124°43'1 1.1
2015-May-13 05:14N 47°00' W 124°43'2 3.1
2015-May-13 04:31N 46°58' W 124°44'1 0.9
2015-May-13 03:32N 46°59' W 124°43'2 1.7
2015-May-13 02:33N 47°00' W 124°44'0 0.2
2015-May-13 01:14N 47°01' W 124°44'1 1.7
2015-May-13 00:33N 46°60' W 124°43'2 1.8
2015-May-12 23:33N 46°58' W 124°41'5 4.7
2015-May-12 22:33N 46°53' W 124°42'5 5.0
2015-May-12 21:33N 46°54' W 124°34'7 6.8
2015-May-12 20:33N 46°56' W 124°25'7 7.0
2015-May-12 19:33N 46°55' W 124°15'  

Dump ship's entire track history